KGDV/GDV METAR and TAF weather

Enter ICAO airport designator
Station Type Date Time Source
KGDV METAR 2018/12/13 22:56 UTC NOAA

KGDV 132256Z AUTO 22010KT 10SM CLR 03/M07 A2998 RMK AO2 SLP176 T00331072


Station Type Date Time Source
KGDV Decoded METAR 2018/12/13 22:56 UTC NOAA

Glendive, Dawson Community Airport, MT, United States (KGDV) 47-08N 104-48W
Dec 13, 2018 - 05:56 PM EST / 2018.12.13 2256 UTC
Wind: from the SW (220 degrees) at 12 MPH (10 KT):0
Visibility: 10 mile(s):0
Sky conditions: clear
Temperature: 37.9 F (3.3 C)
Dew Point: 19.0 F (-7.2 C)
Relative Humidity: 46%
Pressure (altimeter): 29.98 in. Hg (1015 hPa)
ob: KGDV 132256Z AUTO 22010KT 10SM CLR 03/M07 A2998 RMK AO2 SLP176 T00331072
cycle: 23

Station Type Date Time Source
KGDV TAF 2018/12/13 18:27 UTC NOAA

TAF KGDV 131724Z 1318/1418 18009KT P6SM FEW170
FM131900 21012KT P6SM SCT120
FM140300 23009KT P6SM SCT140 WS020/28035KT
FM140600 21008KT P6SM FEW140


Example: see airport list